Time;durP1;ratioP1;P1;durP2;ratioP2;P2;SDS_P1;SDS_P2;PMS_P1;PMS_P2;Temp;Humidity;BMP_temperature;BMP_pressure;BME280_temperature;BME280_humidity;BME280_pressure;Samples;Min_cycle;Max_cycle;Signal;HPM_P1;HPM_P2
2023/08/19 00:00:23;;;;;;;;;;;;;;;20.07;81.82;95241.72;5137508;27;1970;-59
2023/08/19 00:02:49;;;;;;;;;;;;;;;19.92;81.72;95241.19;5137727;27;967;-59
2023/08/19 00:05:15;;;;;;;;;;;;;;;20.15;81.10;95243.38;5137419;27;964;-59
2023/08/19 00:07:41;;;;;;;;;;;;;;;20.27;80.48;95238.91;5137598;27;1049;-60
2023/08/19 00:10:07;;;;;;;;;;;;;;;20.32;80.43;95244.50;5136609;27;2520;-60
2023/08/19 00:12:34;;;;;;;;;;;;;;;20.12;81.27;95244.63;5136391;27;2952;-60
2023/08/19 00:15:00;;;;;;;;;;;;;;;20.31;80.33;95242.84;5137185;27;1028;-60
2023/08/19 00:17:25;;;;;;;;;;;;;;;20.25;80.60;95249.97;5123710;27;2471;-59
2023/08/19 00:19:51;;;;;;;;;;;;;;;20.16;81.78;95245.84;5124050;27;1177;-59
2023/08/19 00:22:17;;;;;;;;;;;;;;;20.14;81.51;95244.41;5136998;27;1978;-60
2023/08/19 00:24:44;;;;;;;;;;;;;;;20.09;81.56;95235.06;5137062;27;986;-60
2023/08/19 00:27:10;;;;;;;;;;;;;;;20.04;81.72;95237.59;5136656;27;1202;-60
2023/08/19 00:29:36;;;;;;;;;;;;;;;19.98;82.04;95227.59;5129442;27;2830;-60
2023/08/19 00:32:02;;;;;;;;;;;;;;;19.88;82.77;95227.22;5117782;27;2742;-60
2023/08/19 00:34:28;;;;;;;;;;;;;;;19.84;82.04;95231.44;5116462;28;957;-60
2023/08/19 00:36:55;;;;;;;;;;;;;;;19.81;83.13;95227.28;5116088;28;1044;-60
2023/08/19 00:39:22;;;;;;;;;;;;;;;19.88;82.30;95233.50;5120203;27;2620;-60
2023/08/19 00:41:48;;;;;;;;;;;;;;;19.95;81.33;95232.63;5136491;27;1988;-60
2023/08/19 00:44:14;;;;;;;;;;;;;;;20.13;80.18;95235.47;5136856;27;995;-60
2023/08/19 00:46:40;;;;;;;;;;;;;;;20.38;79.21;95232.78;5136855;27;965;-60
2023/08/19 00:49:06;;;;;;;;;;;;;;;20.12;81.43;95235.66;5136070;27;2734;-60
2023/08/19 00:51:34;;;;;;;;;;;;;;;20.17;80.87;95241.28;5117788;27;2857;-60
2023/08/19 00:54:00;;;;;;;;;;;;;;;20.02;82.14;95233.44;5115893;28;1031;-60
2023/08/19 00:56:26;;;;;;;;;;;;;;;20.00;81.95;95235.53;5115665;28;1020;-60
2023/08/19 00:58:53;;;;;;;;;;;;;;;19.95;82.50;95227.22;5115618;28;1211;-60
2023/08/19 01:01:19;;;;;;;;;;;;;;;19.83;83.01;95232.50;5115820;28;1971;-60
2023/08/19 01:03:45;;;;;;;;;;;;;;;19.68;82.87;95220.00;5115594;28;1020;-60
2023/08/19 01:06:24;;;;;;;;;;;;;;;19.66;83.84;95227.53;5115514;28;1019;-60
2023/08/19 01:09:04;;;;;;;;;;;;;;;19.46;84.85;95224.91;5115511;28;957;-60
2023/08/19 01:11:39;;;;;;;;;;;;;;;19.59;83.28;95225.91;5115716;28;1015;-60
2023/08/19 01:14:11;;;;;;;;;;;;;;;19.61;83.55;95230.03;5115244;27;2924;-60
2023/08/19 01:16:40;;;;;;;;;;;;;;;19.70;83.39;95230.66;5114904;28;2855;-60
2023/08/19 01:19:08;;;;;;;;;;;;;;;19.79;83.35;95226.66;5116302;27;1216;-60
2023/08/19 01:21:34;;;;;;;;;;;;;;;19.81;82.86;95229.16;5135628;27;1996;-60
2023/08/19 01:24:02;;;;;;;;;;;;;;;19.82;82.87;95228.09;5136013;27;1032;-60
2023/08/19 01:26:28;;;;;;;;;;;;;;;19.72;83.16;95223.16;5135940;27;986;-60
2023/08/19 01:28:54;;;;;;;;;;;;;;;19.74;83.39;95215.63;5135213;27;2176;-60
2023/08/19 01:31:20;;;;;;;;;;;;;;;19.64;83.76;95221.50;5115761;27;2875;-60
2023/08/19 01:33:46;;;;;;;;;;;;;;;19.54;84.30;95221.13;5115023;28;1142;-60
2023/08/19 01:36:26;;;;;;;;;;;;;;;19.45;84.17;95220.53;5113753;28;1032;-60
2023/08/19 01:38:55;;;;;;;;;;;;;;;19.36;84.95;95219.09;5115329;28;1214;-60
2023/08/19 01:41:22;;;;;;;;;;;;;;;19.27;85.34;95215.81;5114560;28;1917;-60
2023/08/19 01:43:49;;;;;;;;;;;;;;;19.07;86.41;95215.03;5114858;28;1040;-60
2023/08/19 01:46:15;;;;;;;;;;;;;;;19.15;85.46;95214.78;5113637;28;1068;-60
2023/08/19 01:48:41;;;;;;;;;;;;;;;19.39;84.74;95204.28;5114768;28;1052;-60
2023/08/19 01:51:07;;;;;;;;;;;;;;;19.40;85.11;95211.38;5114938;28;999;-61
2023/08/19 01:53:33;;;;;;;;;;;;;;;19.53;84.35;95205.91;5114986;28;1064;-60
2023/08/19 01:55:59;;;;;;;;;;;;;;;19.55;84.43;95214.66;5115082;28;1040;-61
2023/08/19 01:58:25;;;;;;;;;;;;;;;19.35;85.36;95217.47;5114381;28;1080;-60
2023/08/19 02:00:51;;;;;;;;;;;;;;;19.34;85.21;95220.38;5114785;28;1913;-60
2023/08/19 02:03:17;;;;;;;;;;;;;;;19.31;85.24;95216.19;5113214;28;1032;-61
2023/08/19 02:05:42;;;;;;;;;;;;;;;19.31;85.35;95217.06;5121666;27;2854;-61
2023/08/19 02:08:08;;;;;;;;;;;;;;;19.28;85.44;95222.06;5135189;27;1056;-61
2023/08/19 02:10:34;;;;;;;;;;;;;;;19.18;85.70;95222.50;5134870;27;1039;-61
2023/08/19 02:13:00;;;;;;;;;;;;;;;19.29;85.38;95221.84;5135080;27;1030;-61
2023/08/19 02:15:26;;;;;;;;;;;;;;;19.37;85.21;95215.34;5134879;27;1002;-61
2023/08/19 02:17:52;;;;;;;;;;;;;;;19.13;86.34;95216.88;5134729;27;1019;-61
2023/08/19 02:20:18;;;;;;;;;;;;;;;19.08;85.65;95212.13;5134853;27;2002;-60
2023/08/19 02:22:44;;;;;;;;;;;;;;;19.10;85.46;95203.75;5134972;27;1032;-61
2023/08/19 02:25:10;;;;;;;;;;;;;;;18.75;86.18;95212.16;5134690;27;1105;-61
2023/08/19 02:27:37;;;;;;;;;;;;;;;18.54;88.39;95216.75;5134776;27;973;-61
2023/08/19 02:30:05;;;;;;;;;;;;;;;18.81;87.22;95211.31;5134764;27;1007;-61
2023/08/19 02:32:30;;;;;;;;;;;;;;;19.14;85.93;95202.28;5134527;27;1043;-61
2023/08/19 02:34:56;;;;;;;;;;;;;;;18.79;87.28;95207.97;5134843;27;1019;-61
2023/08/19 02:37:22;;;;;;;;;;;;;;;18.85;86.90;95217.97;5134845;27;1064;-61
2023/08/19 02:39:48;;;;;;;;;;;;;;;18.91;86.26;95211.75;5134693;27;999;-61
2023/08/19 02:42:16;;;;;;;;;;;;;;;18.97;85.97;95218.19;5133260;27;1902;-61
2023/08/19 02:44:43;;;;;;;;;;;;;;;19.03;85.89;95214.63;5134568;27;1011;-61
2023/08/19 02:47:09;;;;;;;;;;;;;;;19.01;86.15;95216.72;5134707;27;956;-62
2023/08/19 02:49:36;;;;;;;;;;;;;;;18.88;86.76;95212.16;5134369;27;1043;-61
2023/08/19 02:52:03;;;;;;;;;;;;;;;18.83;87.35;95220.06;5118622;27;2861;-61
2023/08/19 02:54:29;;;;;;;;;;;;;;;18.51;87.71;95219.84;5118254;28;980;-61
2023/08/19 02:56:55;;;;;;;;;;;;;;;18.59;87.52;95223.41;5118056;28;1237;-61
2023/08/19 02:59:21;;;;;;;;;;;;;;;18.60;87.43;95225.06;5118085;28;1196;-61
2023/08/19 03:01:47;;;;;;;;;;;;;;;18.52;88.03;95226.94;5117950;28;1901;-60
2023/08/19 03:04:14;;;;;;;;;;;;;;;18.58;88.28;95221.75;5118115;28;977;-60
2023/08/19 03:06:41;;;;;;;;;;;;;;;18.61;88.22;95221.31;5118104;28;965;-62
2023/08/19 03:09:07;;;;;;;;;;;;;;;18.62;88.20;95223.00;5117877;28;917;-61
2023/08/19 03:11:35;;;;;;;;;;;;;;;18.49;87.54;95235.47;5118026;28;1051;-62
2023/08/19 03:14:01;;;;;;;;;;;;;;;18.20;88.77;95234.00;5117907;28;1253;-61
2023/08/19 03:16:27;;;;;;;;;;;;;;;18.36;88.73;95232.75;5117654;28;1052;-61
2023/08/19 03:18:53;;;;;;;;;;;;;;;18.19;90.13;95236.91;5117940;28;996;-61
2023/08/19 03:21:19;;;;;;;;;;;;;;;18.34;89.20;95237.56;5137380;27;1984;-61
2023/08/19 03:23:45;;;;;;;;;;;;;;;18.54;88.47;95240.28;5138323;27;1167;-61
2023/08/19 03:26:11;;;;;;;;;;;;;;;18.48;89.04;95247.38;5138065;27;1043;-61
2023/08/19 03:28:37;;;;;;;;;;;;;;;18.51;89.27;95233.38;5138341;27;1055;-61
2023/08/19 03:31:08;;;;;;;;;;;;;;;18.68;88.00;95241.09;5137996;27;1008;-58
2023/08/19 03:33:33;;;;;;;;;;;;;;;18.60;87.66;95241.31;5138229;27;1047;-58
2023/08/19 03:35:59;;;;;;;;;;;;;;;18.53;88.06;95249.44;5137894;27;1091;-57
2023/08/19 03:38:26;;;;;;;;;;;;;;;18.26;89.79;95245.88;5137756;27;983;-58
2023/08/19 03:40:52;;;;;;;;;;;;;;;18.27;89.22;95252.97;5137215;27;1905;-57
2023/08/19 03:43:18;;;;;;;;;;;;;;;18.19;89.59;95264.81;5137213;27;1031;-58
2023/08/19 03:45:44;;;;;;;;;;;;;;;18.18;89.55;95260.44;5128174;27;2525;-58
2023/08/19 03:48:11;;;;;;;;;;;;;;;18.32;88.64;95250.47;5115885;28;1043;-58
2023/08/19 03:50:37;;;;;;;;;;;;;;;18.53;88.11;95250.28;5117159;28;1043;-58
2023/08/19 03:53:03;;;;;;;;;;;;;;;18.39;89.28;95255.91;5116970;28;1090;-58
2023/08/19 03:55:30;;;;;;;;;;;;;;;18.26;88.62;95257.53;5116917;28;960;-58
2023/08/19 03:57:56;;;;;;;;;;;;;;;18.12;89.45;95259.41;5116821;28;1091;-58
2023/08/19 04:00:22;;;;;;;;;;;;;;;18.08;89.82;95260.00;5116562;28;1909;-57
2023/08/19 04:02:48;;;;;;;;;;;;;;;18.23;89.81;95257.13;5116597;28;988;-57
2023/08/19 04:05:14;;;;;;;;;;;;;;;18.32;89.67;95253.16;5116576;28;1083;-56
2023/08/19 04:07:40;;;;;;;;;;;;;;;18.37;89.75;95253.41;5116787;28;977;-57
2023/08/19 04:10:07;;;;;;;;;;;;;;;18.50;89.25;95255.28;5115702;28;964;-59
2023/08/19 04:12:33;;;;;;;;;;;;;;;18.43;89.48;95255.25;5116594;28;1037;-59
2023/08/19 04:15:00;;;;;;;;;;;;;;;18.27;89.84;95258.41;5116411;28;1056;-60
2023/08/19 04:17:26;;;;;;;;;;;;;;;18.19;90.00;95262.09;5129367;27;2484;-58
2023/08/19 04:19:52;;;;;;;;;;;;;;;18.52;88.22;95264.03;5129566;27;1148;-60
2023/08/19 04:22:18;;;;;;;;;;;;;;;18.82;86.93;95264.47;5116480;28;1910;-56
2023/08/19 04:24:50;;;;;;;;;;;;;;;18.99;86.94;95256.75;5128029;27;2483;-58
2023/08/19 04:27:17;;;;;;;;;;;;;;;19.17;86.14;95258.78;5136709;27;1120;-57
2023/08/19 04:29:43;;;;;;;;;;;;;;;19.29;85.96;95258.94;5136633;27;1044;-59
2023/08/19 04:32:09;;;;;;;;;;;;;;;19.54;85.86;95250.09;5136705;27;1024;-58
2023/08/19 04:34:34;;;;;;;;;;;;;;;20.07;83.06;95255.31;5136995;27;1121;-57
2023/08/19 04:37:00;;;;;;;;;;;;;;;20.45;81.64;95260.72;5136611;27;1091;-57
2023/08/19 04:39:27;;;;;;;;;;;;;;;20.54;80.35;95269.41;5136577;27;1047;-55
2023/08/19 04:41:53;;;;;;;;;;;;;;;20.83;78.24;95270.69;5136785;27;1917;-56
2023/08/19 04:44:19;;;;;;;;;;;;;;;21.01;77.12;95264.44;5136607;27;968;-58
2023/08/19 04:46:45;;;;;;;;;;;;;;;21.06;78.09;95258.34;5136779;27;983;-57
2023/08/19 04:49:11;;;;;;;;;;;;;;;21.06;77.32;95258.34;5136510;27;1036;-57
2023/08/19 04:51:37;;;;;;;;;;;;;;;20.74;81.77;95263.84;5136057;27;1098;-58
2023/08/19 04:54:04;;;;;;;;;;;;;;;20.41;82.78;95267.63;5136406;27;1048;-57
2023/08/19 04:56:30;;;;;;;;;;;;;;;20.36;83.10;95256.59;5136195;27;1043;-58
2023/08/19 04:59:00;;;;;;;;;;;;;;;20.48;83.61;95260.25;5135978;27;1229;-58
2023/08/19 05:01:26;;;;;;;;;;;;;;;20.44;83.80;95264.47;5130330;27;2640;-57
2023/08/19 05:03:53;;;;;;;;;;;;;;;20.34;83.66;95266.84;5115555;28;1044;-58
2023/08/19 05:06:19;;;;;;;;;;;;;;;20.58;80.53;95275.22;5115555;28;1023;-58
2023/08/19 05:08:45;;;;;;;;;;;;;;;20.88;79.23;95275.44;5115452;27;1019;-58
2023/08/19 05:11:11;;;;;;;;;;;;;;;20.93;80.09;95282.94;5115374;28;1036;-58
2023/08/19 05:13:37;;;;;;;;;;;;;;;20.93;78.46;95282.94;5115176;28;1052;-58
2023/08/19 05:16:03;;;;;;;;;;;;;;;21.16;77.38;95280.41;5114734;28;1043;-57
2023/08/19 05:18:29;;;;;;;;;;;;;;;21.30;79.50;95286.53;5115450;28;976;-57
2023/08/19 05:20:55;;;;;;;;;;;;;;;21.21;79.86;95282.47;5131633;27;1996;-57
2023/08/19 05:23:21;;;;;;;;;;;;;;;21.41;79.50;95279.53;5135721;27;991;-58
2023/08/19 05:25:47;;;;;;;;;;;;;;;21.63;78.56;95282.69;5135613;27;1083;-58
2023/08/19 05:28:13;;;;;;;;;;;;;;;21.73;75.04;95285.69;5135422;27;1091;-58
2023/08/19 05:30:39;;;;;;;;;;;;;;;21.95;75.64;95280.59;5135819;27;1067;-57
2023/08/19 05:33:04;;;;;;;;;;;;;;;22.25;73.63;95285.25;5136105;27;977;-57
2023/08/19 05:35:30;;;;;;;;;;;;;;;22.29;73.48;95274.72;5135410;27;1095;-57
2023/08/19 05:37:56;;;;;;;;;;;;;;;22.36;74.44;95273.56;5135732;27;983;-57
2023/08/19 05:40:22;;;;;;;;;;;;;;;22.53;73.27;95279.19;5135534;27;1905;-57
2023/08/19 05:42:48;;;;;;;;;;;;;;;22.51;73.13;95288.66;5135542;27;1124;-57
2023/08/19 05:45:15;;;;;;;;;;;;;;;22.49;74.55;95282.63;5135483;27;1051;-57
2023/08/19 05:47:41;;;;;;;;;;;;;;;22.46;73.02;95278.47;5135446;27;1051;-58
2023/08/19 05:50:07;;;;;;;;;;;;;;;22.68;73.25;95273.31;5135479;27;983;-58
2023/08/19 05:52:33;;;;;;;;;;;;;;;22.78;72.57;95278.16;5135178;27;1049;-58
2023/08/19 05:54:59;;;;;;;;;;;;;;;22.92;72.25;95274.19;5135130;27;1062;-58
2023/08/19 05:57:25;;;;;;;;;;;;;;;22.96;70.37;95271.81;5133703;27;1392;-58
2023/08/19 05:59:51;;;;;;;;;;;;;;;23.06;71.29;95274.81;5123862;27;2630;-57
2023/08/19 06:02:17;;;;;;;;;;;;;;;23.07;70.72;95270.16;5114515;28;1987;-58
2023/08/19 06:04:44;;;;;;;;;;;;;;;23.44;69.17;95265.31;5114573;28;1063;-58
2023/08/19 06:07:11;;;;;;;;;;;;;;;23.34;70.26;95265.09;5114478;28;991;-58
2023/08/19 06:09:37;;;;;;;;;;;;;;;23.55;70.49;95271.81;5114334;28;1860;-59
2023/08/19 06:12:03;;;;;;;;;;;;;;;23.80;69.21;95273.47;5125097;27;2642;-58
2023/08/19 06:14:29;;;;;;;;;;;;;;;24.00;67.33;95273.03;5135049;27;996;-58
2023/08/19 06:16:54;;;;;;;;;;;;;;;24.18;69.86;95281.06;5134937;27;1011;-57
2023/08/19 06:19:20;;;;;;;;;;;;;;;24.11;66.50;95280.38;5134825;27;1215;-58
2023/08/19 06:21:47;;;;;;;;;;;;;;;24.43;67.39;95288.09;5134916;27;1987;-58
2023/08/19 06:24:13;;;;;;;;;;;;;;;24.53;68.33;95285.59;5134882;27;961;-58
2023/08/19 06:26:39;;;;;;;;;;;;;;;24.72;66.16;95286.19;5134737;27;1067;-57
2023/08/19 06:29:05;;;;;;;;;;;;;;;24.94;65.93;95289.00;5133701;27;2476;-58
2023/08/19 06:31:31;;;;;;;;;;;;;;;25.00;65.09;95290.75;5134076;27;1036;-57
2023/08/19 06:33:57;;;;;;;;;;;;;;;25.29;63.42;95293.44;5129615;27;2558;-58
2023/08/19 06:36:25;;;;;;;;;;;;;;;25.41;60.98;95296.91;5114116;28;1269;-58
2023/08/19 06:39:03;;;;;;;;;;;;;;;25.53;61.81;95288.59;5116766;27;2491;-58
2023/08/19 06:41:32;;;;;;;;;;;;;;;25.72;61.03;95300.06;5113944;28;1982;-57
2023/08/19 06:43:59;;;;;;;;;;;;;;;25.72;61.74;95291.84;5113966;28;1080;-58
2023/08/19 06:46:25;;;;;;;;;;;;;;;25.71;60.92;95296.50;5113967;28;992;-59
2023/08/19 06:48:51;;;;;;;;;;;;;;;25.81;62.08;95293.06;5114149;28;960;-59
2023/08/19 06:51:17;;;;;;;;;;;;;;;25.98;61.91;95292.25;5112699;28;988;-57
2023/08/19 06:53:43;;;;;;;;;;;;;;;26.17;60.34;95298.22;5114145;28;997;-57
2023/08/19 06:56:12;;;;;;;;;;;;;;;26.28;60.15;95298.09;5113721;28;1051;-57
2023/08/19 06:58:44;;;;;;;;;;;;;;;26.37;57.82;95290.25;5115976;28;2504;-57
2023/08/19 07:01:21;;;;;;;;;;;;;;;26.36;59.12;95290.50;5113828;28;1992;-57
2023/08/19 07:03:50;;;;;;;;;;;;;;;26.59;58.20;95297.59;5113937;28;1224;-58
2023/08/19 07:06:18;;;;;;;;;;;;;;;26.82;56.68;95297.28;5115982;28;2918;-57
2023/08/19 07:08:45;;;;;;;;;;;;;;;27.09;54.22;95290.97;5114003;28;988;-58
2023/08/19 07:11:11;;;;;;;;;;;;;;;27.24;54.43;95291.09;5113651;28;992;-58
2023/08/19 07:13:37;;;;;;;;;;;;;;;27.38;54.25;95301.63;5113985;28;1048;-61
2023/08/19 07:16:04;;;;;;;;;;;;;;;27.34;52.56;95298.59;5113799;28;1020;-58
2023/08/19 07:18:35;;;;;;;;;;;;;;;27.63;51.99;95290.00;5113831;28;1040;-58
2023/08/19 07:21:02;;;;;;;;;;;;;;;27.68;52.12;95300.16;5130693;28;1914;-58
2023/08/19 07:23:28;;;;;;;;;;;;;;;27.72;51.70;95298.56;5134251;27;1056;-57
2023/08/19 07:25:55;;;;;;;;;;;;;;;27.84;51.28;95300.00;5134452;27;984;-59
2023/08/19 07:28:22;;;;;;;;;;;;;;;27.83;49.79;95297.50;5134010;27;1070;-58
2023/08/19 07:30:51;;;;;;;;;;;;;;;27.86;49.98;95299.72;5132964;28;1039;-59
2023/08/19 07:33:17;;;;;;;;;;;;;;;28.06;49.53;95304.53;5133980;27;1035;-58
2023/08/19 07:35:43;;;;;;;;;;;;;;;28.19;48.67;95293.06;5134055;27;984;-58
2023/08/19 07:38:10;;;;;;;;;;;;;;;28.36;50.13;95286.50;5135110;27;1027;-58
2023/08/19 07:40:36;;;;;;;;;;;;;;;28.48;50.25;95283.53;5137788;27;1909;-58
2023/08/19 07:43:02;;;;;;;;;;;;;;;28.61;49.69;95289.34;5137588;27;2863;-60
2023/08/19 07:45:28;;;;;;;;;;;;;;;28.66;50.33;95284.97;5137623;27;1680;-60
2023/08/19 07:47:54;;;;;;;;;;;;;;;28.62;50.82;95288.25;5132260;27;2959;-61
2023/08/19 07:50:21;;;;;;;;;;;;;;;28.70;48.60;95291.56;5117038;28;1012;-60
2023/08/19 07:52:47;;;;;;;;;;;;;;;28.77;50.03;95286.63;5117423;27;1023;-59
2023/08/19 07:55:13;;;;;;;;;;;;;;;28.84;45.79;95302.84;5123568;27;2559;-57
2023/08/19 07:57:39;;;;;;;;;;;;;;;29.01;46.71;95293.25;5137405;27;1166;-58
2023/08/19 08:00:05;;;;;;;;;;;;;;;28.94;44.08;95306.47;5137741;27;964;-58
2023/08/19 08:02:31;;;;;;;;;;;;;;;28.90;44.25;95301.78;5136619;27;2425;-58
2023/08/19 08:04:58;;;;;;;;;;;;;;;28.93;46.48;95299.31;5118467;27;2745;-58
2023/08/19 08:07:24;;;;;;;;;;;;;;;28.94;44.15;95300.13;5118714;27;2825;-58
2023/08/19 08:09:50;;;;;;;;;;;;;;;29.05;44.74;95295.47;5117045;28;1056;-58
2023/08/19 08:12:16;;;;;;;;;;;;;;;28.95;44.00;95291.63;5116843;28;1012;-58
2023/08/19 08:14:42;;;;;;;;;;;;;;;29.22;43.38;95296.06;5116904;28;1055;-59
2023/08/19 08:17:08;;;;;;;;;;;;;;;29.41;43.68;95299.06;5116651;28;962;-58
2023/08/19 08:19:34;;;;;;;;;;;;;;;29.34;42.30;95306.78;5118139;27;2653;-58
2023/08/19 08:22:00;;;;;;;;;;;;;;;29.23;40.62;95311.47;5116372;28;1930;-58
2023/08/19 08:24:26;;;;;;;;;;;;;;;29.12;44.65;95287.75;5116502;28;1049;-59
2023/08/19 08:26:52;;;;;;;;;;;;;;;29.14;42.21;95304.84;5116343;28;1103;-58
2023/08/19 08:29:18;;;;;;;;;;;;;;;29.13;43.95;95303.22;5116247;28;1039;-58
2023/08/19 08:31:44;;;;;;;;;;;;;;;29.07;42.58;95313.34;5115080;28;1031;-58
2023/08/19 08:34:10;;;;;;;;;;;;;;;29.22;42.15;95307.06;5129124;27;2690;-58
2023/08/19 08:36:36;;;;;;;;;;;;;;;29.35;42.24;95308.44;5136717;27;1036;-59
2023/08/19 08:39:02;;;;;;;;;;;;;;;29.53;40.71;95313.38;5136925;27;1038;-58
2023/08/19 08:41:29;;;;;;;;;;;;;;;29.77;41.78;95318.34;5136478;27;1993;-58
2023/08/19 08:43:57;;;;;;;;;;;;;;;29.95;40.77;95314.16;5132218;27;2820;-59
2023/08/19 08:46:25;;;;;;;;;;;;;;;30.05;41.21;95313.28;5116015;28;1013;-58
2023/08/19 08:48:51;;;;;;;;;;;;;;;29.86;38.24;95324.09;5115566;28;968;-59
2023/08/19 08:51:18;;;;;;;;;;;;;;;29.88;40.17;95317.22;5114979;27;1103;-59
2023/08/19 08:53:45;;;;;;;;;;;;;;;29.86;39.48;95319.44;5116101;28;960;-59
2023/08/19 08:56:13;;;;;;;;;;;;;;;29.81;38.94;95319.44;5116044;28;1030;-59
2023/08/19 08:58:39;;;;;;;;;;;;;;;29.86;40.78;95313.91;5116371;27;2463;-59
2023/08/19 09:01:05;;;;;;;;;;;;;;;29.83;40.14;95319.97;5135653;27;2823;-59
2023/08/19 09:03:33;;;;;;;;;;;;;;;30.02;41.74;95316.63;5136161;27;1015;-58
2023/08/19 09:06:16;;;;;;;;;;;;;;;29.98;40.81;95321.88;5124874;27;2909;-59
2023/08/19 09:08:46;;;;;;;;;;;;;;;30.03;38.08;95330.13;5115592;28;1048;-59
2023/08/19 09:11:13;;;;;;;;;;;;;;;30.10;40.69;95316.84;5115557;28;983;-58
2023/08/19 09:13:40;;;;;;;;;;;;;;;30.00;40.05;95316.09;5115556;28;992;-59
2023/08/19 09:16:10;;;;;;;;;;;;;;;30.04;40.66;95312.47;5115661;28;989;-59
2023/08/19 09:18:36;;;;;;;;;;;;;;;30.16;39.23;95313.00;5115639;28;1027;-59
2023/08/19 09:21:02;;;;;;;;;;;;;;;30.15;39.62;95310.53;5118898;27;2501;-59
2023/08/19 09:23:30;;;;;;;;;;;;;;;29.89;38.51;95323.53;5115191;28;1549;-61
2023/08/19 09:25:57;;;;;;;;;;;;;;;29.94;37.32;95313.34;5115432;28;1031;-60
2023/08/19 09:28:23;;;;;;;;;;;;;;;30.08;37.93;95313.56;5126489;27;2742;-59
2023/08/19 09:30:49;;;;;;;;;;;;;;;30.30;38.83;95298.59;5135570;27;1020;-61
2023/08/19 09:33:21;;;;;;;;;;;;;;;30.19;39.18;95297.00;5135727;27;1027;-58
2023/08/19 09:35:55;;;;;;;;;;;;;;;30.13;38.80;95302.53;5135741;27;1003;-58
2023/08/19 09:38:23;;;;;;;;;;;;;;;30.21;39.34;95300.28;5135553;27;1048;-58
2023/08/19 09:41:00;;;;;;;;;;;;;;;30.23;37.38;95306.34;5135711;27;1898;-58
2023/08/19 09:43:26;;;;;;;;;;;;;;;30.38;39.21;95294.47;5131960;27;2643;-58
2023/08/19 09:45:56;;;;;;;;;;;;;;;30.50;39.39;95294.94;5114847;28;1027;-58
2023/08/19 09:48:23;;;;;;;;;;;;;;;30.37;37.05;95290.84;5114834;28;961;-61
2023/08/19 09:50:49;;;;;;;;;;;;;;;30.44;38.48;95287.81;5130022;27;2961;-61
2023/08/19 09:53:16;;;;;;;;;;;;;;;30.86;37.94;95287.25;5120777;27;1442;-61
2023/08/19 09:55:48;;;;;;;;;;;;;;;30.79;38.67;95285.94;5114250;28;1053;-59
2023/08/19 09:58:14;;;;;;;;;;;;;;;30.74;38.13;95279.34;5129148;27;2413;-58
2023/08/19 10:00:41;;;;;;;;;;;;;;;30.67;38.75;95276.06;5128536;27;2917;-59
2023/08/19 10:03:07;;;;;;;;;;;;;;;30.55;37.83;95278.38;5113467;28;838;-59
2023/08/19 10:05:40;;;;;;;;;;;;;;;30.63;38.66;95279.69;5124582;27;1747;-59
2023/08/19 10:08:19;;;;;;;;;;;;;;;30.69;38.52;95270.28;5113659;28;1055;-57
2023/08/19 10:10:46;;;;;;;;;;;;;;;30.70;38.96;95266.41;5114221;28;980;-60
2023/08/19 10:13:12;;;;;;;;;;;;;;;30.70;38.44;95270.00;5116507;27;2451;-60
2023/08/19 10:15:40;;;;;;;;;;;;;;;30.77;38.53;95268.84;5114287;27;1040;-59
2023/08/19 10:18:09;;;;;;;;;;;;;;;30.69;38.83;95268.34;5114349;28;973;-60
2023/08/19 10:20:37;;;;;;;;;;;;;;;30.68;39.04;95266.69;5127616;27;1986;-60
2023/08/19 10:23:04;;;;;;;;;;;;;;;30.64;38.54;95262.88;5134662;27;1063;-59
2023/08/19 10:25:30;;;;;;;;;;;;;;;30.82;40.17;95253.06;5134488;27;1091;-60
2023/08/19 10:28:07;;;;;;;;;;;;;;;30.89;40.21;95256.34;5132788;27;1056;-60
2023/08/19 10:30:33;;;;;;;;;;;;;;;30.86;39.65;95261.59;5134805;27;998;-60
2023/08/19 10:33:21;;;;;;;;;;;;;;;30.85;38.76;95258.03;5134695;27;973;-60
2023/08/19 10:36:07;;;;;;;;;;;;;;;30.95;38.35;95259.91;5134478;27;1339;-60
2023/08/19 10:38:40;;;;;;;;;;;;;;;30.91;38.25;95254.16;5134478;27;1032;-60
2023/08/19 10:41:15;;;;;;;;;;;;;;;30.97;38.49;95248.59;5134278;27;1993;-59
2023/08/19 10:43:53;;;;;;;;;;;;;;;31.07;38.42;95252.06;5134476;27;1031;-60
2023/08/19 10:46:19;;;;;;;;;;;;;;;31.12;38.70;95254.00;5133423;27;987;-60
2023/08/19 10:48:46;;;;;;;;;;;;;;;31.09;37.57;95252.63;5134432;27;1063;-60
2023/08/19 10:51:12;;;;;;;;;;;;;;;31.12;38.18;95254.81;5133114;28;1032;-58
2023/08/19 10:53:47;;;;;;;;;;;;;;;31.09;38.13;95247.13;5134493;27;1023;-60
2023/08/19 10:56:17;;;;;;;;;;;;;;;31.32;36.47;95242.75;5134262;27;1052;-60
2023/08/19 10:58:44;;;;;;;;;;;;;;;31.16;38.74;95241.25;5132920;28;1285;-59
2023/08/19 11:01:11;;;;;;;;;;;;;;;31.33;38.00;95241.63;5134267;27;1902;-60
2023/08/19 11:03:38;;;;;;;;;;;;;;;31.28;38.10;95240.84;5134171;27;1134;-62
2023/08/19 11:06:07;;;;;;;;;;;;;;;31.43;38.44;95235.19;5134224;27;1040;-60
2023/08/19 11:08:45;;;;;;;;;;;;;;;31.59;37.89;95235.91;5134180;27;944;-59
2023/08/19 11:11:15;;;;;;;;;;;;;;;31.45;37.19;95232.13;5134105;27;1130;-60
2023/08/19 11:13:42;;;;;;;;;;;;;;;31.43;38.56;95231.59;5136374;27;1063;-60
2023/08/19 11:16:08;;;;;;;;;;;;;;;31.42;37.18;95232.75;5138328;27;1035;-60
2023/08/19 11:18:40;;;;;;;;;;;;;;;31.42;39.44;95219.75;5131527;27;2472;-60
2023/08/19 11:21:06;;;;;;;;;;;;;;;31.03;38.94;95208.78;5138363;27;2065;-60
2023/08/19 11:23:33;;;;;;;;;;;;;;;30.47;35.75;95221.88;5138051;27;1047;-60
2023/08/19 11:25:59;;;;;;;;;;;;;;;30.45;38.43;95207.53;5132682;27;2495;-60
2023/08/19 11:28:25;;;;;;;;;;;;;;;30.52;38.92;95204.44;5117749;28;997;-60
2023/08/19 11:30:52;;;;;;;;;;;;;;;30.75;39.41;95205.66;5117783;28;1024;-60
2023/08/19 11:33:18;;;;;;;;;;;;;;;31.05;39.15;95203.78;5117379;28;1024;-60
2023/08/19 11:35:48;;;;;;;;;;;;;;;31.17;39.10;95198.72;5117449;28;957;-59
2023/08/19 11:38:15;;;;;;;;;;;;;;;31.23;37.73;95200.31;5117228;28;1106;-60
2023/08/19 11:40:42;;;;;;;;;;;;;;;31.27;38.43;95204.13;5116132;28;1985;-60
2023/08/19 11:43:09;;;;;;;;;;;;;;;31.28;38.73;95200.28;5117309;28;1093;-60
2023/08/19 11:45:43;;;;;;;;;;;;;;;31.30;39.78;95200.81;5117623;27;1313861;-60
2023/08/19 11:48:13;;;;;;;;;;;;;;;31.35;35.89;95207.38;5150973;27;2459;-60
2023/08/19 11:50:50;;;;;;;;;;;;;;;31.06;37.48;95194.41;5152639;27;1043;-60
2023/08/19 11:53:26;;;;;;;;;;;;;;;31.20;39.48;95181.56;5132529;27;2982;-60
2023/08/19 11:55:57;;;;;;;;;;;;;;;31.25;39.32;95188.97;5134453;27;1153;-59
2023/08/19 11:58:43;;;;;;;;;;;;;;;31.17;38.22;95182.16;5139759;27;2582;-59
2023/08/19 12:01:10;;;;;;;;;;;;;;;31.10;38.59;95184.44;5133005;27;2868;-59
2023/08/19 12:03:40;;;;;;;;;;;;;;;30.89;38.57;95181.81;5113160;28;1900;-59
2023/08/19 12:06:06;;;;;;;;;;;;;;;30.79;38.97;95184.66;5131668;28;1472;-59
2023/08/19 12:08:33;;;;;;;;;;;;;;;30.79;38.57;95181.91;5131363;28;1047;-59
2023/08/19 12:10:59;;;;;;;;;;;;;;;30.93;39.75;95177.38;5134395;27;2621;-59
2023/08/19 12:13:28;;;;;;;;;;;;;;;30.74;36.22;95190.22;5151924;27;1043;-60
2023/08/19 12:15:55;;;;;;;;;;;;;;;30.82;39.44;95178.56;5152120;27;976;-59
2023/08/19 12:18:22;;;;;;;;;;;;;;;30.67;37.17;95185.03;5145904;27;2845;-59
2023/08/19 12:20:49;;;;;;;;;;;;;;;30.82;37.02;95186.84;5145183;27;2608;-59
2023/08/19 12:23:18;;;;;;;;;;;;;;;30.82;37.56;95180.50;5131971;27;2568;-59
2023/08/19 12:25:49;;;;;;;;;;;;;;;30.80;39.37;95166.97;5150005;27;1759;-59
2023/08/19 12:28:16;;;;;;;;;;;;;;;30.80;39.59;95166.16;5151479;27;1071;-58
2023/08/19 12:30:43;;;;;;;;;;;;;;;30.83;37.30;95171.94;5136658;27;2481;-58
2023/08/19 12:33:09;;;;;;;;;;;;;;;31.02;37.55;95168.47;5139766;27;2861;-60
2023/08/19 12:35:35;;;;;;;;;;;;;;;31.15;36.97;95173.31;5146776;27;1167;-61
2023/08/19 12:38:03;;;;;;;;;;;;;;;31.30;37.77;95170.44;5146116;27;1384;-60
2023/08/19 12:40:29;;;;;;;;;;;;;;;31.42;37.67;95171.97;5151093;27;1048;-60
2023/08/19 12:42:55;;;;;;;;;;;;;;;31.44;38.98;95166.97;5149601;27;2701;-60
2023/08/19 12:45:22;;;;;;;;;;;;;;;31.31;38.28;95158.25;5149452;27;2425;-59
2023/08/19 12:47:48;;;;;;;;;;;;;;;31.37;40.41;95156.25;5132941;27;1036;-59
2023/08/19 12:50:15;;;;;;;;;;;;;;;31.25;38.61;95164.13;5134514;27;1186;-59
2023/08/19 12:52:42;;;;;;;;;;;;;;;31.21;37.10;95174.09;5135737;27;2486;-60
2023/08/19 12:55:08;;;;;;;;;;;;;;;31.20;36.52;95166.94;5130704;27;2551;-59
2023/08/19 12:57:36;;;;;;;;;;;;;;;31.18;38.73;95156.19;5135832;27;2464;-58